sensor_id;sensor_type;location;lat;lon;timestamp;temperature;humidity
11505;DHT22;5809;53.262;10.408;2023-07-20T00:00:09;13.00;99.90
11505;DHT22;5809;53.262;10.408;2023-07-20T00:02:38;13.00;99.90
11505;DHT22;5809;53.262;10.408;2023-07-20T00:05:05;13.00;99.90
11505;DHT22;5809;53.262;10.408;2023-07-20T00:07:32;13.00;99.90
11505;DHT22;5809;53.262;10.408;2023-07-20T00:10:00;12.90;99.90
11505;DHT22;5809;53.262;10.408;2023-07-20T00:12:27;12.90;99.90
11505;DHT22;5809;53.262;10.408;2023-07-20T03:22:03;13.20;99.90
11505;DHT22;5809;53.262;10.408;2023-07-20T03:24:29;13.20;99.90
11505;DHT22;5809;53.262;10.408;2023-07-20T03:26:56;15.80;99.90
11505;DHT22;5809;53.262;10.408;2023-07-20T03:39:14;13.20;99.90
11505;DHT22;5809;53.262;10.408;2023-07-20T03:44:08;13.20;99.90
11505;DHT22;5809;53.262;10.408;2023-07-20T04:11:12;13.30;99.90
11505;DHT22;5809;53.262;10.408;2023-07-20T04:18:36;13.30;99.90
11505;DHT22;5809;53.262;10.408;2023-07-20T04:28:24;13.30;99.90
11505;DHT22;5809;53.262;10.408;2023-07-20T04:30:52;13.40;99.90
11505;DHT22;5809;53.262;10.408;2023-07-20T04:33:19;13.40;99.90
11505;DHT22;5809;53.262;10.408;2023-07-20T04:35:48;13.40;99.90
11505;DHT22;5809;53.262;10.408;2023-07-20T04:38:16;13.50;99.90
11505;DHT22;5809;53.262;10.408;2023-07-20T04:45:37;13.60;99.90
11505;DHT22;5809;53.262;10.408;2023-07-20T04:48:08;13.60;99.90
11505;DHT22;5809;53.262;10.408;2023-07-20T04:50:36;13.70;99.90
11505;DHT22;5809;53.262;10.408;2023-07-20T04:55:30;13.80;99.90
11505;DHT22;5809;53.262;10.408;2023-07-20T04:57:59;13.80;99.90
11505;DHT22;5809;53.262;10.408;2023-07-20T05:00:26;13.90;99.90
11505;DHT22;5809;53.262;10.408;2023-07-20T05:05:21;13.90;99.90
11505;DHT22;5809;53.262;10.408;2023-07-20T05:07:48;14.00;99.90
11505;DHT22;5809;53.262;10.408;2023-07-20T05:15:10;14.00;99.90
11505;DHT22;5809;53.262;10.408;2023-07-20T05:17:36;14.10;99.90
11505;DHT22;5809;53.262;10.408;2023-07-20T05:20:05;14.20;99.90
11505;DHT22;5809;53.262;10.408;2023-07-20T05:22:36;14.20;99.90
11505;DHT22;5809;53.262;10.408;2023-07-20T05:25:06;14.30;99.90
11505;DHT22;5809;53.262;10.408;2023-07-20T05:30:00;14.50;99.90
11505;DHT22;5809;53.262;10.408;2023-07-20T05:34:55;14.70;99.90
11505;DHT22;5809;53.262;10.408;2023-07-20T05:37:22;14.80;99.90
11505;DHT22;5809;53.262;10.408;2023-07-20T05:39:50;14.80;99.90
11505;DHT22;5809;53.262;10.408;2023-07-20T05:42:17;14.90;99.90
11505;DHT22;5809;53.262;10.408;2023-07-20T05:44:44;14.90;99.90
11505;DHT22;5809;53.262;10.408;2023-07-20T05:47:12;14.90;99.90
11505;DHT22;5809;53.262;10.408;2023-07-20T05:49:43;14.90;99.90
11505;DHT22;5809;53.262;10.408;2023-07-20T05:52:10;15.00;99.90
11505;DHT22;5809;53.262;10.408;2023-07-20T05:54:40;15.00;99.90
11505;DHT22;5809;53.262;10.408;2023-07-20T05:59:36;15.20;99.90
11505;DHT22;5809;53.262;10.408;2023-07-20T06:02:06;15.40;99.90
11505;DHT22;5809;53.262;10.408;2023-07-20T06:04:33;15.60;99.90
11505;DHT22;5809;53.262;10.408;2023-07-20T06:09:27;15.70;1.00
11505;DHT22;5809;53.262;10.408;2023-07-20T06:14:24;15.70;1.00
11505;DHT22;5809;53.262;10.408;2023-07-20T06:19:18;15.80;1.00
11505;DHT22;5809;53.262;10.408;2023-07-20T06:24:12;15.80;1.00
11505;DHT22;5809;53.262;10.408;2023-07-20T06:26:39;15.90;1.00
11505;DHT22;5809;53.262;10.408;2023-07-20T06:29:06;16.20;1.00
11505;DHT22;5809;53.262;10.408;2023-07-20T06:31:36;16.40;1.00
11505;DHT22;5809;53.262;10.408;2023-07-20T06:34:03;16.90;99.90
11505;DHT22;5809;53.262;10.408;2023-07-20T06:36:30;17.30;99.90
11505;DHT22;5809;53.262;10.408;2023-07-20T06:38:57;17.40;1.00
11505;DHT22;5809;53.262;10.408;2023-07-20T06:41:24;17.60;1.00
11505;DHT22;5809;53.262;10.408;2023-07-20T06:48:51;18.20;99.90
11505;DHT22;5809;53.262;10.408;2023-07-20T06:53:46;18.00;99.90
11505;DHT22;5809;53.262;10.408;2023-07-20T06:56:13;18.00;1.00
11505;DHT22;5809;53.262;10.408;2023-07-20T07:01:07;18.70;99.90
11505;DHT22;5809;53.262;10.408;2023-07-20T07:03:34;18.70;99.90
11505;DHT22;5809;53.262;10.408;2023-07-20T07:06:03;19.20;1.00
11505;DHT22;5809;53.262;10.408;2023-07-20T07:08:30;19.30;1.00
11505;DHT22;5809;53.262;10.408;2023-07-20T07:10:57;19.40;99.90
11505;DHT22;5809;53.262;10.408;2023-07-20T07:15:51;19.30;99.90
11505;DHT22;5809;53.262;10.408;2023-07-20T07:20:54;19.30;99.90
11505;DHT22;5809;53.262;10.408;2023-07-20T07:23:22;19.30;1.00
11505;DHT22;5809;53.262;10.408;2023-07-20T07:25:49;19.70;99.90
11505;DHT22;5809;53.262;10.408;2023-07-20T07:28:16;20.00;1.00
11505;DHT22;5809;53.262;10.408;2023-07-20T07:30:43;20.30;1.00
11505;DHT22;5809;53.262;10.408;2023-07-20T07:35:38;20.80;1.00
11505;DHT22;5809;53.262;10.408;2023-07-20T07:38:05;20.70;1.00
11505;DHT22;5809;53.262;10.408;2023-07-20T07:40:33;20.10;1.00
11505;DHT22;5809;53.262;10.408;2023-07-20T07:43:00;20.40;1.00
11505;DHT22;5809;53.262;10.408;2023-07-20T07:47:54;21.50;1.00
11505;DHT22;5809;53.262;10.408;2023-07-20T07:50:21;21.40;1.00
11505;DHT22;5809;53.262;10.408;2023-07-20T07:55:15;21.70;1.00
11505;DHT22;5809;53.262;10.408;2023-07-20T07:57:44;21.80;1.00
11505;DHT22;5809;53.262;10.408;2023-07-20T08:00:13;21.70;99.90
11505;DHT22;5809;53.262;10.408;2023-07-20T08:02:41;21.90;1.00
11505;DHT22;5809;53.262;10.408;2023-07-20T08:05:08;22.20;99.90
11505;DHT22;5809;53.262;10.408;2023-07-20T08:07:36;21.50;99.90
11505;DHT22;5809;53.262;10.408;2023-07-20T08:10:03;20.70;1.00
11505;DHT22;5809;53.262;10.408;2023-07-20T08:12:30;20.90;99.90
11505;DHT22;5809;53.262;10.408;2023-07-20T08:14:59;21.10;99.90
11505;DHT22;5809;53.262;10.408;2023-07-20T08:17:26;21.10;99.90
11505;DHT22;5809;53.262;10.408;2023-07-20T08:22:20;22.80;99.90
11505;DHT22;5809;53.262;10.408;2023-07-20T08:24:47;23.70;99.90
11505;DHT22;5809;53.262;10.408;2023-07-20T08:27:13;24.20;99.90
11505;DHT22;5809;53.262;10.408;2023-07-20T08:29:40;23.60;99.90
11505;DHT22;5809;53.262;10.408;2023-07-20T08:32:09;22.60;1.00
11505;DHT22;5809;53.262;10.408;2023-07-20T08:34:36;22.10;1.00
11505;DHT22;5809;53.262;10.408;2023-07-20T08:37:03;22.30;99.90
11505;DHT22;5809;53.262;10.408;2023-07-20T08:39:30;22.10;1.00
11505;DHT22;5809;53.262;10.408;2023-07-20T08:41:58;21.50;99.90
11505;DHT22;5809;53.262;10.408;2023-07-20T08:44:27;21.20;1.00
11505;DHT22;5809;53.262;10.408;2023-07-20T08:46:54;21.70;1.00
11505;DHT22;5809;53.262;10.408;2023-07-20T08:49:22;21.90;99.90
11505;DHT22;5809;53.262;10.408;2023-07-20T08:51:50;22.70;99.90
11505;DHT22;5809;53.262;10.408;2023-07-20T08:54:18;23.30;96.90
11505;DHT22;5809;53.262;10.408;2023-07-20T08:56:45;24.40;1.00
11505;DHT22;5809;53.262;10.408;2023-07-20T08:59:13;24.80;1.00
11505;DHT22;5809;53.262;10.408;2023-07-20T09:01:42;24.50;99.90
11505;DHT22;5809;53.262;10.408;2023-07-20T09:04:10;24.40;99.90
11505;DHT22;5809;53.262;10.408;2023-07-20T09:06:39;25.10;27.80
11505;DHT22;5809;53.262;10.408;2023-07-20T09:09:06;25.00;1.00
11505;DHT22;5809;53.262;10.408;2023-07-20T09:11:33;24.50;65.00
11505;DHT22;5809;53.262;10.408;2023-07-20T09:14:04;24.90;99.90
11505;DHT22;5809;53.262;10.408;2023-07-20T09:16:31;25.60;77.10
11505;DHT22;5809;53.262;10.408;2023-07-20T09:18:58;25.60;76.00
11505;DHT22;5809;53.262;10.408;2023-07-20T09:21:28;25.90;77.90
11505;DHT22;5809;53.262;10.408;2023-07-20T09:23:57;25.20;20.30
11505;DHT22;5809;53.262;10.408;2023-07-20T09:26:24;25.10;1.00
11505;DHT22;5809;53.262;10.408;2023-07-20T09:28:52;25.20;1.00
11505;DHT22;5809;53.262;10.408;2023-07-20T09:31:20;25.20;81.10
11505;DHT22;5809;53.262;10.408;2023-07-20T09:33:48;25.90;1.00
11505;DHT22;5809;53.262;10.408;2023-07-20T09:36:15;25.80;1.00
11505;DHT22;5809;53.262;10.408;2023-07-20T09:38:43;25.80;1.00
11505;DHT22;5809;53.262;10.408;2023-07-20T09:41:14;25.80;1.00
11505;DHT22;5809;53.262;10.408;2023-07-20T09:43:42;26.20;1.00
11505;DHT22;5809;53.262;10.408;2023-07-20T09:46:09;25.20;1.00
11505;DHT22;5809;53.262;10.408;2023-07-20T09:48:36;25.20;8.50
11505;DHT22;5809;53.262;10.408;2023-07-20T09:51:03;25.50;1.00
11505;DHT22;5809;53.262;10.408;2023-07-20T09:53:32;24.70;70.80
11505;DHT22;5809;53.262;10.408;2023-07-20T09:56:00;24.20;75.30
11505;DHT22;5809;53.262;10.408;2023-07-20T09:58:29;23.40;99.90
11505;DHT22;5809;53.262;10.408;2023-07-20T10:00:57;22.20;99.90
11505;DHT22;5809;53.262;10.408;2023-07-20T10:03:29;20.10;1.00
11505;DHT22;5809;53.262;10.408;2023-07-20T10:05:57;19.00;1.00
11505;DHT22;5809;53.262;10.408;2023-07-20T10:08:25;18.10;1.00
11505;DHT22;5809;53.262;10.408;2023-07-20T10:10:53;13.90;7.70
11505;DHT22;5809;53.262;10.408;2023-07-20T10:13:25;17.70;1.00
11505;DHT22;5809;53.262;10.408;2023-07-20T10:15:57;17.70;1.00
11505;DHT22;5809;53.262;10.408;2023-07-20T10:18:29;19.40;99.90
11505;DHT22;5809;53.262;10.408;2023-07-20T10:20:58;21.00;99.90
11505;DHT22;5809;53.262;10.408;2023-07-20T10:23:26;20.90;99.90
11505;DHT22;5809;53.262;10.408;2023-07-20T10:25:54;21.70;1.00
11505;DHT22;5809;53.262;10.408;2023-07-20T10:28:22;22.60;1.00
11505;DHT22;5809;53.262;10.408;2023-07-20T10:30:50;23.20;99.90
11505;DHT22;5809;53.262;10.408;2023-07-20T10:33:18;23.20;99.90
11505;DHT22;5809;53.262;10.408;2023-07-20T10:35:53;24.20;99.90
11505;DHT22;5809;53.262;10.408;2023-07-20T10:38:38;24.30;99.90
11505;DHT22;5809;53.262;10.408;2023-07-20T10:41:15;25.10;1.00
11505;DHT22;5809;53.262;10.408;2023-07-20T10:43:43;25.10;1.00
11505;DHT22;5809;53.262;10.408;2023-07-20T10:46:11;25.50;1.00
11505;DHT22;5809;53.262;10.408;2023-07-20T10:49:01;25.00;1.00
11505;DHT22;5809;53.262;10.408;2023-07-20T10:51:28;25.20;1.00
11505;DHT22;5809;53.262;10.408;2023-07-20T10:53:55;25.50;1.00
11505;DHT22;5809;53.262;10.408;2023-07-20T10:56:26;25.20;1.00
11505;DHT22;5809;53.262;10.408;2023-07-20T10:58:58;25.80;1.00
11505;DHT22;5809;53.262;10.408;2023-07-20T11:01:28;25.30;99.90
11505;DHT22;5809;53.262;10.408;2023-07-20T11:03:58;24.20;1.00
11505;DHT22;5809;53.262;10.408;2023-07-20T11:06:33;23.00;99.90
11505;DHT22;5809;53.262;10.408;2023-07-20T11:09:05;22.00;99.90
11505;DHT22;5809;53.262;10.408;2023-07-20T11:11:34;21.70;99.90
11505;DHT22;5809;53.262;10.408;2023-07-20T11:14:02;21.50;1.00
11505;DHT22;5809;53.262;10.408;2023-07-20T11:16:34;21.20;1.00
11505;DHT22;5809;53.262;10.408;2023-07-20T11:19:01;21.50;1.00
11505;DHT22;5809;53.262;10.408;2023-07-20T11:21:28;21.50;1.00
11505;DHT22;5809;53.262;10.408;2023-07-20T11:23:57;21.30;1.00
11505;DHT22;5809;53.262;10.408;2023-07-20T11:26:23;21.10;99.90
11505;DHT22;5809;53.262;10.408;2023-07-20T11:28:50;21.20;1.00
11505;DHT22;5809;53.262;10.408;2023-07-20T11:31:18;21.80;99.90
11505;DHT22;5809;53.262;10.408;2023-07-20T11:33:45;23.30;99.90
11505;DHT22;5809;53.262;10.408;2023-07-20T11:36:12;24.60;1.00
11505;DHT22;5809;53.262;10.408;2023-07-20T11:38:41;25.30;99.90
11505;DHT22;5809;53.262;10.408;2023-07-20T11:41:10;24.70;1.00
11505;DHT22;5809;53.262;10.408;2023-07-20T11:43:37;23.60;1.00
11505;DHT22;5809;53.262;10.408;2023-07-20T11:46:05;23.10;1.00
11505;DHT22;5809;53.262;10.408;2023-07-20T11:48:32;23.40;1.00
11505;DHT22;5809;53.262;10.408;2023-07-20T11:50:59;23.50;1.00
11505;DHT22;5809;53.262;10.408;2023-07-20T11:53:26;24.10;1.00
11505;DHT22;5809;53.262;10.408;2023-07-20T11:55:53;25.40;1.00
11505;DHT22;5809;53.262;10.408;2023-07-20T11:58:22;26.60;99.90
11505;DHT22;5809;53.262;10.408;2023-07-20T12:00:48;25.50;99.90
11505;DHT22;5809;53.262;10.408;2023-07-20T12:03:15;25.40;99.90
11505;DHT22;5809;53.262;10.408;2023-07-20T12:05:42;26.20;99.90
11505;DHT22;5809;53.262;10.408;2023-07-20T12:08:09;26.40;99.90
11505;DHT22;5809;53.262;10.408;2023-07-20T12:10:39;26.70;99.90
11505;DHT22;5809;53.262;10.408;2023-07-20T12:13:10;26.20;99.90
11505;DHT22;5809;53.262;10.408;2023-07-20T12:15:38;25.60;99.90
11505;DHT22;5809;53.262;10.408;2023-07-20T12:18:05;24.40;99.90
11505;DHT22;5809;53.262;10.408;2023-07-20T12:20:34;23.40;1.00
11505;DHT22;5809;53.262;10.408;2023-07-20T12:23:03;22.80;1.00
11505;DHT22;5809;53.262;10.408;2023-07-20T12:25:40;22.20;1.00
11505;DHT22;5809;53.262;10.408;2023-07-20T12:28:09;22.30;99.90
11505;DHT22;5809;53.262;10.408;2023-07-20T12:30:38;23.00;1.00
11505;DHT22;5809;53.262;10.408;2023-07-20T12:33:05;22.30;1.00
11505;DHT22;5809;53.262;10.408;2023-07-20T12:35:32;21.50;92.00
11505;DHT22;5809;53.262;10.408;2023-07-20T12:37:59;21.30;1.00
11505;DHT22;5809;53.262;10.408;2023-07-20T12:40:26;21.50;1.00
11505;DHT22;5809;53.262;10.408;2023-07-20T12:42:53;22.10;99.90
11505;DHT22;5809;53.262;10.408;2023-07-20T12:45:20;22.00;99.90
11505;DHT22;5809;53.262;10.408;2023-07-20T12:47:48;21.60;99.90
11505;DHT22;5809;53.262;10.408;2023-07-20T12:50:15;21.30;99.90
11505;DHT22;5809;53.262;10.408;2023-07-20T12:52:42;20.80;1.00
11505;DHT22;5809;53.262;10.408;2023-07-20T12:55:10;20.50;1.00
11505;DHT22;5809;53.262;10.408;2023-07-20T12:57:37;20.50;1.00
11505;DHT22;5809;53.262;10.408;2023-07-20T13:00:06;20.50;99.90
11505;DHT22;5809;53.262;10.408;2023-07-20T13:02:34;20.70;16.30
11505;DHT22;5809;53.262;10.408;2023-07-20T13:05:03;21.30;1.00
11505;DHT22;5809;53.262;10.408;2023-07-20T13:07:31;22.20;1.00
11505;DHT22;5809;53.262;10.408;2023-07-20T13:09:58;22.60;1.00
11505;DHT22;5809;53.262;10.408;2023-07-20T13:12:26;22.70;99.90
11505;DHT22;5809;53.262;10.408;2023-07-20T13:14:53;22.50;99.90
11505;DHT22;5809;53.262;10.408;2023-07-20T13:17:20;22.60;1.00
11505;DHT22;5809;53.262;10.408;2023-07-20T13:19:47;22.80;1.00
11505;DHT22;5809;53.262;10.408;2023-07-20T13:22:15;23.50;99.90
11505;DHT22;5809;53.262;10.408;2023-07-20T13:24:44;24.50;96.50
11505;DHT22;5809;53.262;10.408;2023-07-20T13:27:11;25.50;1.00
11505;DHT22;5809;53.262;10.408;2023-07-20T13:29:38;25.60;1.00
11505;DHT22;5809;53.262;10.408;2023-07-20T13:32:06;24.90;1.00
11505;DHT22;5809;53.262;10.408;2023-07-20T13:34:33;24.10;35.20
11505;DHT22;5809;53.262;10.408;2023-07-20T13:37:00;23.10;99.90
11505;DHT22;5809;53.262;10.408;2023-07-20T13:39:28;22.20;99.90
11505;DHT22;5809;53.262;10.408;2023-07-20T13:41:55;21.40;99.90
11505;DHT22;5809;53.262;10.408;2023-07-20T13:44:22;19.60;99.90
11505;DHT22;5809;53.262;10.408;2023-07-20T13:46:49;19.50;99.90
11505;DHT22;5809;53.262;10.408;2023-07-20T13:49:16;18.90;99.90
11505;DHT22;5809;53.262;10.408;2023-07-20T13:51:43;18.60;1.00
11505;DHT22;5809;53.262;10.408;2023-07-20T13:54:10;18.60;32.70
11505;DHT22;5809;53.262;10.408;2023-07-20T13:56:38;18.80;99.90
11505;DHT22;5809;53.262;10.408;2023-07-20T13:59:05;19.10;1.00
11505;DHT22;5809;53.262;10.408;2023-07-20T14:01:32;20.60;1.00
11505;DHT22;5809;53.262;10.408;2023-07-20T14:04:00;22.50;1.00
11505;DHT22;5809;53.262;10.408;2023-07-20T14:06:30;24.10;99.90
11505;DHT22;5809;53.262;10.408;2023-07-20T14:08:57;24.70;1.00
11505;DHT22;5809;53.262;10.408;2023-07-20T14:11:24;24.30;1.00
11505;DHT22;5809;53.262;10.408;2023-07-20T14:13:53;23.60;1.00
11505;DHT22;5809;53.262;10.408;2023-07-20T14:16:20;23.00;99.90
11505;DHT22;5809;53.262;10.408;2023-07-20T14:18:47;23.00;1.00
11505;DHT22;5809;53.262;10.408;2023-07-20T14:21:14;22.70;99.90
11505;DHT22;5809;53.262;10.408;2023-07-20T14:23:41;22.20;1.00
11505;DHT22;5809;53.262;10.408;2023-07-20T14:26:08;21.70;1.00
11505;DHT22;5809;53.262;10.408;2023-07-20T14:28:35;21.30;1.00
11505;DHT22;5809;53.262;10.408;2023-07-20T14:31:03;20.90;99.90
11505;DHT22;5809;53.262;10.408;2023-07-20T14:33:30;20.20;1.00
11505;DHT22;5809;53.262;10.408;2023-07-20T14:35:57;18.60;1.00
11505;DHT22;5809;53.262;10.408;2023-07-20T14:38:24;18.20;99.90
11505;DHT22;5809;53.262;10.408;2023-07-20T14:40:53;18.10;1.00
11505;DHT22;5809;53.262;10.408;2023-07-20T14:43:20;18.20;99.90
11505;DHT22;5809;53.262;10.408;2023-07-20T14:48:15;17.90;1.00
11505;DHT22;5809;53.262;10.408;2023-07-20T14:50:42;17.70;99.90
11505;DHT22;5809;53.262;10.408;2023-07-20T14:53:11;17.60;99.90
11505;DHT22;5809;53.262;10.408;2023-07-20T14:55:38;17.60;99.90
11505;DHT22;5809;53.262;10.408;2023-07-20T14:58:04;17.60;1.00
11505;DHT22;5809;53.262;10.408;2023-07-20T15:00:31;17.60;1.00
11505;DHT22;5809;53.262;10.408;2023-07-20T15:02:58;17.80;99.90
11505;DHT22;5809;53.262;10.408;2023-07-20T15:05:26;17.90;1.00
11505;DHT22;5809;53.262;10.408;2023-07-20T15:07:53;18.00;1.00
11505;DHT22;5809;53.262;10.408;2023-07-20T15:12:48;18.00;1.00
11505;DHT22;5809;53.262;10.408;2023-07-20T15:15:15;18.10;1.00
11505;DHT22;5809;53.262;10.408;2023-07-20T15:17:43;18.40;99.90
11505;DHT22;5809;53.262;10.408;2023-07-20T15:20:11;18.50;99.90
11505;DHT22;5809;53.262;10.408;2023-07-20T15:22:40;18.50;99.90
11505;DHT22;5809;53.262;10.408;2023-07-20T15:25:08;18.50;99.90
11505;DHT22;5809;53.262;10.408;2023-07-20T15:27:37;18.50;36.10
11505;DHT22;5809;53.262;10.408;2023-07-20T15:30:05;18.40;1.00
11505;DHT22;5809;53.262;10.408;2023-07-20T15:37:29;18.30;99.90
11505;DHT22;5809;53.262;10.408;2023-07-20T15:39:58;18.50;99.90
11505;DHT22;5809;53.262;10.408;2023-07-20T15:42:29;18.40;99.90
11505;DHT22;5809;53.262;10.408;2023-07-20T15:44:56;18.60;99.90
11505;DHT22;5809;53.262;10.408;2023-07-20T15:47:23;18.80;1.00
11505;DHT22;5809;53.262;10.408;2023-07-20T15:52:31;18.90;1.00
11505;DHT22;5809;53.262;10.408;2023-07-20T15:54:59;18.90;1.00
11505;DHT22;5809;53.262;10.408;2023-07-20T15:59:53;19.10;30.50
11505;DHT22;5809;53.262;10.408;2023-07-20T16:02:20;19.30;1.00
11505;DHT22;5809;53.262;10.408;2023-07-20T16:04:46;19.20;99.90
11505;DHT22;5809;53.262;10.408;2023-07-20T16:07:13;19.20;1.00
11505;DHT22;5809;53.262;10.408;2023-07-20T16:12:10;19.50;99.90
11505;DHT22;5809;53.262;10.408;2023-07-20T16:17:04;19.70;1.00
11505;DHT22;5809;53.262;10.408;2023-07-20T16:24:25;20.30;99.90
11505;DHT22;5809;53.262;10.408;2023-07-20T16:26:52;20.20;99.90
11505;DHT22;5809;53.262;10.408;2023-07-20T16:29:20;20.20;99.90
11505;DHT22;5809;53.262;10.408;2023-07-20T16:31:49;20.30;1.00
11505;DHT22;5809;53.262;10.408;2023-07-20T16:34:16;20.30;99.90
11505;DHT22;5809;53.262;10.408;2023-07-20T16:39:10;20.00;99.90
11505;DHT22;5809;53.262;10.408;2023-07-20T16:41:37;19.90;99.90
11505;DHT22;5809;53.262;10.408;2023-07-20T16:44:04;19.90;1.00
11505;DHT22;5809;53.262;10.408;2023-07-20T16:46:33;19.90;1.00
11505;DHT22;5809;53.262;10.408;2023-07-20T16:49:00;20.10;1.00
11505;DHT22;5809;53.262;10.408;2023-07-20T16:51:31;20.20;1.00
11505;DHT22;5809;53.262;10.408;2023-07-20T16:53:58;20.40;99.90
11505;DHT22;5809;53.262;10.408;2023-07-20T16:58:52;20.40;59.20
11505;DHT22;5809;53.262;10.408;2023-07-20T17:01:19;20.40;62.30
11505;DHT22;5809;53.262;10.408;2023-07-20T17:03:48;20.20;76.70
11505;DHT22;5809;53.262;10.408;2023-07-20T17:06:15;20.00;99.90
11505;DHT22;5809;53.262;10.408;2023-07-20T17:08:42;20.00;99.90
11505;DHT22;5809;53.262;10.408;2023-07-20T17:11:09;20.00;99.90
11505;DHT22;5809;53.262;10.408;2023-07-20T17:13:36;19.90;1.00
11505;DHT22;5809;53.262;10.408;2023-07-20T17:18:31;20.10;99.90
11505;DHT22;5809;53.262;10.408;2023-07-20T17:21:00;20.10;1.00
11505;DHT22;5809;53.262;10.408;2023-07-20T17:23:27;20.00;99.90
11505;DHT22;5809;53.262;10.408;2023-07-20T17:25:55;20.00;1.00
11505;DHT22;5809;53.262;10.408;2023-07-20T17:28:22;20.00;1.00
11505;DHT22;5809;53.262;10.408;2023-07-20T17:30:56;19.80;99.90
11505;DHT22;5809;53.262;10.408;2023-07-20T17:33:24;19.80;99.90
11505;DHT22;5809;53.262;10.408;2023-07-20T17:38:19;19.60;99.90
11505;DHT22;5809;53.262;10.408;2023-07-20T17:40:46;19.60;99.90
11505;DHT22;5809;53.262;10.408;2023-07-20T17:43:13;19.50;1.00
11505;DHT22;5809;53.262;10.408;2023-07-20T17:45:40;19.40;1.00
11505;DHT22;5809;53.262;10.408;2023-07-20T17:48:07;19.30;1.00
11505;DHT22;5809;53.262;10.408;2023-07-20T17:50:34;19.20;1.00
11505;DHT22;5809;53.262;10.408;2023-07-20T17:53:01;19.00;1.00
11505;DHT22;5809;53.262;10.408;2023-07-20T17:55:30;19.00;1.00
11505;DHT22;5809;53.262;10.408;2023-07-20T17:57:57;18.90;1.00
11505;DHT22;5809;53.262;10.408;2023-07-20T18:00:24;18.90;1.00
11505;DHT22;5809;53.262;10.408;2023-07-20T18:02:51;18.80;1.00
11505;DHT22;5809;53.262;10.408;2023-07-20T18:05:18;18.70;1.00
11505;DHT22;5809;53.262;10.408;2023-07-20T18:07:45;18.50;99.90
11505;DHT22;5809;53.262;10.408;2023-07-20T18:10:11;18.50;99.90
11505;DHT22;5809;53.262;10.408;2023-07-20T18:12:40;18.40;99.90
11505;DHT22;5809;53.262;10.408;2023-07-20T18:15:08;18.40;1.00
11505;DHT22;5809;53.262;10.408;2023-07-20T18:17:35;18.40;1.00
11505;DHT22;5809;53.262;10.408;2023-07-20T18:22:30;18.50;1.00
11505;DHT22;5809;53.262;10.408;2023-07-20T18:27:25;18.50;99.90
11505;DHT22;5809;53.262;10.408;2023-07-20T18:32:21;18.40;1.00
11505;DHT22;5809;53.262;10.408;2023-07-20T18:39:45;18.20;1.00
11505;DHT22;5809;53.262;10.408;2023-07-20T18:49:36;18.00;1.00
11505;DHT22;5809;53.262;10.408;2023-07-20T19:01:51;17.40;99.90
11505;DHT22;5809;53.262;10.408;2023-07-20T19:04:20;17.30;99.90
11505;DHT22;5809;53.262;10.408;2023-07-20T19:11:42;17.10;1.00
11505;DHT22;5809;53.262;10.408;2023-07-20T19:19:03;17.20;1.00
11505;DHT22;5809;53.262;10.408;2023-07-20T19:23:58;17.20;89.80
11505;DHT22;5809;53.262;10.408;2023-07-20T19:36:14;17.10;8.50
11505;DHT22;5809;53.262;10.408;2023-07-20T19:38:43;17.10;96.70
11505;DHT22;5809;53.262;10.408;2023-07-20T20:15:40;16.70;1.00
11505;DHT22;5809;53.262;10.408;2023-07-20T20:23:08;16.60;51.40
11505;DHT22;5809;53.262;10.408;2023-07-20T20:30:41;16.60;1.00
11505;DHT22;5809;53.262;10.408;2023-07-20T20:35:34;16.50;99.90
11505;DHT22;5809;53.262;10.408;2023-07-20T21:02:37;16.00;99.90
11505;DHT22;5809;53.262;10.408;2023-07-20T21:05:05;16.00;99.90
11505;DHT22;5809;53.262;10.408;2023-07-20T21:46:54;15.20;99.90
11505;DHT22;5809;53.262;10.408;2023-07-20T22:01:38;15.30;1.00
11505;DHT22;5809;53.262;10.408;2023-07-20T22:58:18;14.90;1.00
11505;DHT22;5809;53.262;10.408;2023-07-20T23:13:02;14.90;99.90
11505;DHT22;5809;53.262;10.408;2023-07-20T23:25:21;14.80;1.00
11505;DHT22;5809;53.262;10.408;2023-07-20T23:27:49;14.80;1.00
11505;DHT22;5809;53.262;10.408;2023-07-20T23:30:17;14.70;1.00
11505;DHT22;5809;53.262;10.408;2023-07-20T23:50:00;14.20;4.80
11505;DHT22;5809;53.262;10.408;2023-07-20T23:59:56;14.30;99.90
